Time;durP1;ratioP1;P1;durP2;ratioP2;P2;SDS_P1;SDS_P2;PMS_P1;PMS_P2;Temp;Humidity;BMP_temperature;BMP_pressure;BME280_temperature;BME280_humidity;BME280_pressure;Samples;Min_cycle;Max_cycle;Signal;HPM_P1;HPM_P2
2021/08/24 00:00:28;;;;;;;;;;;23.20;47.80;;;;;;1558658;74;582;-58
2021/08/24 00:02:30;;;;;;;;;;;23.20;47.90;;;;;;1545285;74;788;-58
2021/08/24 00:04:31;;;;;;;;;;;23.10;47.80;;;;;;1549243;74;623;-58
2021/08/24 00:06:33;;;;;;;;;;;23.10;47.80;;;;;;1540227;74;655;-58
2021/08/24 00:08:35;;;;;;;;;;;23.20;47.70;;;;;;1549164;74;888;-58
2021/08/24 00:10:38;;;;;;;;;;;23.10;47.70;;;;;;1564432;74;692;-58
2021/08/24 00:12:40;;;;;;;;;;;23.10;47.70;;;;;;1559193;74;1939;-58
2021/08/24 00:14:42;;;;;;;;;;;23.10;47.70;;;;;;1547391;74;630;-58
2021/08/24 00:16:44;;;;;;;;;;;23.10;47.70;;;;;;1562886;74;705;-58
2021/08/24 00:18:46;;;;;;;;;;;23.10;47.60;;;;;;1562521;74;724;-57
2021/08/24 00:20:48;;;;;;;;;;;23.10;47.70;;;;;;1555288;74;744;-58
2021/08/24 00:22:50;;;;;;;;;;;23.10;47.60;;;;;;1558131;74;1153;-58
2021/08/24 00:24:52;;;;;;;;;;;23.10;47.60;;;;;;1556075;74;786;-58
2021/08/24 00:26:54;;;;;;;;;;;23.10;47.60;;;;;;1561571;74;775;-58
2021/08/24 00:28:56;;;;;;;;;;;23.10;47.60;;;;;;1547490;74;701;-58
2021/08/24 00:30:58;;;;;;;;;;;23.10;47.60;;;;;;1559951;74;748;-57
2021/08/24 00:32:59;;;;;;;;;;;23.10;47.60;;;;;;1560492;74;1938;-57
2021/08/24 00:35:01;;;;;;;;;;;23.10;47.50;;;;;;1557552;74;672;-57
2021/08/24 00:37:03;;;;;;;;;;;23.10;47.50;;;;;;1562956;74;726;-57
2021/08/24 00:39:05;;;;;;;;;;;23.10;47.50;;;;;;1539090;74;763;-57
2021/08/24 00:41:07;;;;;;;;;;;23.10;47.60;;;;;;1545523;74;698;-57
2021/08/24 00:43:11;;;;;;;;;;;23.10;47.50;;;;;;1551457;74;1143;-58
2021/08/24 00:45:13;;;;;;;;;;;23.10;47.50;;;;;;1558850;74;1449;-58
2021/08/24 00:47:15;;;;;;;;;;;23.10;47.50;;;;;;1565977;74;668;-59
2021/08/24 00:49:18;;;;;;;;;;;23.10;47.50;;;;;;1553524;74;781;-58
2021/08/24 00:51:21;;;;;;;;;;;23.10;47.40;;;;;;1557530;74;1928;-59
2021/08/24 00:53:24;;;;;;;;;;;23.10;47.40;;;;;;1562379;74;1087;-59
2021/08/24 00:55:25;;;;;;;;;;;23.10;47.40;;;;;;1548163;74;682;-58
2021/08/24 00:57:27;;;;;;;;;;;23.10;47.40;;;;;;1552028;74;710;-58
2021/08/24 00:59:29;;;;;;;;;;;23.10;47.40;;;;;;1548259;74;776;-59
2021/08/24 01:01:31;;;;;;;;;;;23.10;47.40;;;;;;1560287;74;700;-58
2021/08/24 01:03:37;;;;;;;;;;;23.10;47.40;;;;;;1560172;74;1249;-58
2021/08/24 01:05:40;;;;;;;;;;;23.10;47.30;;;;;;1554089;74;727;-58
2021/08/24 01:07:42;;;;;;;;;;;23.10;47.40;;;;;;1551293;74;724;-58
2021/08/24 01:09:47;;;;;;;;;;;23.00;47.10;;;;;;1542974;74;805;-58
2021/08/24 01:12:07;;;;;;;;;;;23.00;47.20;;;;;;1555431;74;1920;-58
2021/08/24 01:14:13;;;;;;;;;;;23.00;47.10;;;;;;1567049;74;1207;-58
2021/08/24 01:16:29;;;;;;;;;;;23.10;47.20;;;;;;1554529;74;724;-58
2021/08/24 01:18:34;;;;;;;;;;;23.00;47.10;;;;;;1529935;76;1023;-58
2021/08/24 01:20:40;;;;;;;;;;;23.00;47.10;;;;;;1566436;74;704;-58
2021/08/24 01:23:00;;;;;;;;;;;23.10;47.20;;;;;;1550657;74;1870;-58
2021/08/24 01:25:13;;;;;;;;;;;23.10;47.20;;;;;;1552184;74;690;-58
2021/08/24 01:27:16;;;;;;;;;;;23.10;47.20;;;;;;1543410;74;1920;-58
2021/08/24 01:29:29;;;;;;;;;;;23.10;47.20;;;;;;1550286;74;1485;-57
2021/08/24 01:31:38;;;;;;;;;;;23.00;47.10;;;;;;1554266;74;1946;-57
2021/08/24 01:33:45;;;;;;;;;;;23.10;47.20;;;;;;1558948;74;1752;-60
2021/08/24 01:35:48;;;;;;;;;;;23.00;47.00;;;;;;1563895;74;726;-58
2021/08/24 01:37:55;;;;;;;;;;;23.10;47.10;;;;;;1545679;74;720;-58
2021/08/24 01:39:58;;;;;;;;;;;23.10;47.10;;;;;;1548535;76;556;-58
2021/08/24 01:42:10;;;;;;;;;;;23.10;47.10;;;;;;1555032;74;2265;-58
2021/08/24 01:44:13;;;;;;;;;;;23.00;47.00;;;;;;1540129;74;1096;-58
2021/08/24 01:46:17;;;;;;;;;;;23.00;47.00;;;;;;1549213;74;718;-59
2021/08/24 01:48:24;;;;;;;;;;;23.00;47.00;;;;;;1552559;74;720;-57
2021/08/24 01:50:27;;;;;;;;;;;23.00;47.00;;;;;;1567832;74;712;-59
2021/08/24 01:52:31;;;;;;;;;;;23.10;47.10;;;;;;1552907;74;1964;-58
2021/08/24 01:54:34;;;;;;;;;;;23.00;46.90;;;;;;1564158;73;220921;-63
2021/08/24 01:56:38;;;;;;;;;;;23.00;46.90;;;;;;1569583;74;1883;-62
2021/08/24 01:58:44;;;;;;;;;;;23.00;46.80;;;;;;1562058;74;792;-62
2021/08/24 02:00:48;;;;;;;;;;;23.10;47.00;;;;;;1563292;74;1006;-62
2021/08/24 02:02:51;;;;;;;;;;;23.10;46.90;;;;;;1573047;74;1196;-62
2021/08/24 02:04:55;;;;;;;;;;;23.00;46.80;;;;;;1576773;74;749;-62
2021/08/24 02:06:57;;;;;;;;;;;23.10;46.90;;;;;;1563687;74;796;-62
2021/08/24 02:09:00;;;;;;;;;;;23.00;46.80;;;;;;1558475;75;706;-63
2021/08/24 02:11:02;;;;;;;;;;;23.00;46.80;;;;;;1553519;75;689;-63
2021/08/24 02:13:04;;;;;;;;;;;23.10;46.90;;;;;;1560238;75;1938;-63
2021/08/24 02:15:08;;;;;;;;;;;23.00;46.80;;;;;;1557717;75;757;-63
2021/08/24 02:17:11;;;;;;;;;;;23.00;46.80;;;;;;1562799;74;768;-63
2021/08/24 02:19:14;;;;;;;;;;;23.00;46.80;;;;;;1552995;75;672;-63
2021/08/24 02:21:16;;;;;;;;;;;23.00;46.70;;;;;;1567156;75;797;-62
2021/08/24 02:23:22;;;;;;;;;;;23.00;46.80;;;;;;1569406;75;1151;-63
2021/08/24 02:25:24;;;;;;;;;;;23.00;46.70;;;;;;1534944;76;1423;-63
2021/08/24 02:27:27;;;;;;;;;;;23.10;46.90;;;;;;1563457;75;748;-62
2021/08/24 02:29:29;;;;;;;;;;;23.00;46.70;;;;;;1571526;74;926;-63
2021/08/24 02:31:35;;;;;;;;;;;23.00;46.70;;;;;;1560659;74;811;-63
2021/08/24 02:33:39;;;;;;;;;;;23.00;46.70;;;;;;1573961;74;1937;-62
2021/08/24 02:35:45;;;;;;;;;;;23.00;46.70;;;;;;1569474;74;816;-63
2021/08/24 02:37:49;;;;;;;;;;;23.00;46.70;;;;;;1564250;75;945;-63
2021/08/24 02:40:04;;;;;;;;;;;23.00;46.70;;;;;;1555645;74;892;-62
2021/08/24 02:42:26;;;;;;;;;;;23.00;46.70;;;;;;1574942;74;699;-63
2021/08/24 02:44:38;;;;;;;;;;;23.00;46.70;;;;;;1564216;75;1788;-63
2021/08/24 02:46:41;;;;;;;;;;;23.00;46.70;;;;;;1568924;74;743;-63
2021/08/24 02:48:44;;;;;;;;;;;23.00;46.70;;;;;;1547843;74;736;-62
2021/08/24 02:50:46;;;;;;;;;;;23.00;46.60;;;;;;1559014;74;787;-63
2021/08/24 02:52:48;;;;;;;;;;;23.00;46.60;;;;;;1569967;74;1937;-62
2021/08/24 02:54:51;;;;;;;;;;;23.00;46.50;;;;;;1562512;74;834;-62
2021/08/24 02:56:54;;;;;;;;;;;23.00;46.50;;;;;;1571174;74;851;-62
2021/08/24 02:58:56;;;;;;;;;;;23.00;46.50;;;;;;1567902;74;832;-63
2021/08/24 03:00:58;;;;;;;;;;;23.00;46.50;;;;;;1565300;74;743;-63
2021/08/24 03:03:00;;;;;;;;;;;23.00;46.50;;;;;;1572100;74;1167;-62
2021/08/24 03:05:01;;;;;;;;;;;23.00;46.40;;;;;;1577454;74;754;-63
2021/08/24 03:07:05;;;;;;;;;;;23.00;46.40;;;;;;1576094;74;722;-63
2021/08/24 03:09:07;;;;;;;;;;;23.00;46.40;;;;;;1559327;74;689;-63
2021/08/24 03:11:09;;;;;;;;;;;23.00;46.40;;;;;;1552770;75;723;-63
2021/08/24 03:13:24;;;;;;;;;;;23.00;46.40;;;;;;1560322;75;1949;-62
2021/08/24 03:15:31;;;;;;;;;;;23.00;46.40;;;;;;1553836;74;1770;-62
2021/08/24 03:17:34;;;;;;;;;;;23.00;46.40;;;;;;1553810;74;684;-63
2021/08/24 03:19:36;;;;;;;;;;;23.00;46.40;;;;;;1558370;74;793;-63
2021/08/24 03:21:38;;;;;;;;;;;23.00;46.40;;;;;;1570747;74;748;-62
2021/08/24 03:23:42;;;;;;;;;;;23.00;46.30;;;;;;1572144;74;1169;-62
2021/08/24 03:25:44;;;;;;;;;;;23.00;46.40;;;;;;1573632;74;706;-62
2021/08/24 03:27:47;;;;;;;;;;;23.00;46.30;;;;;;1560385;74;743;-62
2021/08/24 03:29:50;;;;;;;;;;;23.00;46.30;;;;;;1569465;74;825;-62
2021/08/24 03:31:56;;;;;;;;;;;23.00;46.30;;;;;;1571018;74;1837;-63
2021/08/24 03:33:58;;;;;;;;;;;23.00;46.30;;;;;;1570424;74;1919;-62
2021/08/24 03:36:00;;;;;;;;;;;23.00;46.30;;;;;;1554656;74;805;-63
2021/08/24 03:38:02;;;;;;;;;;;23.00;46.30;;;;;;1559620;74;681;-62
2021/08/24 03:40:04;;;;;;;;;;;23.00;46.30;;;;;;1565861;74;740;-63
2021/08/24 03:42:06;;;;;;;;;;;23.00;46.20;;;;;;1566851;74;712;-62
2021/08/24 03:44:08;;;;;;;;;;;23.00;46.30;;;;;;1567713;75;1129;-63
2021/08/24 03:46:10;;;;;;;;;;;23.00;46.20;;;;;;1562516;74;779;-63
2021/08/24 03:48:12;;;;;;;;;;;23.00;46.20;;;;;;1567714;74;720;-62
2021/08/24 03:50:14;;;;;;;;;;;23.00;46.10;;;;;;1568056;74;686;-63
2021/08/24 03:52:16;;;;;;;;;;;23.00;46.10;;;;;;1552972;74;1924;-61
2021/08/24 03:54:18;;;;;;;;;;;23.00;46.10;;;;;;1549902;74;1230;-62
2021/08/24 03:56:19;;;;;;;;;;;23.00;46.00;;;;;;1569448;74;784;-62
2021/08/24 03:58:21;;;;;;;;;;;23.00;46.10;;;;;;1563650;74;730;-61
2021/08/24 04:00:23;;;;;;;;;;;23.00;46.10;;;;;;1569772;74;769;-63
2021/08/24 04:02:26;;;;;;;;;;;23.00;46.00;;;;;;1564735;74;782;-63
2021/08/24 04:04:27;;;;;;;;;;;23.00;46.00;;;;;;1555965;74;1135;-63
2021/08/24 04:06:29;;;;;;;;;;;23.00;45.90;;;;;;1570037;74;754;-62
2021/08/24 04:08:31;;;;;;;;;;;22.90;46.00;;;;;;1569199;75;791;-63
2021/08/24 04:10:33;;;;;;;;;;;23.00;45.90;;;;;;1556767;74;794;-62
2021/08/24 04:12:35;;;;;;;;;;;23.00;45.90;;;;;;1566265;74;1939;-63
2021/08/24 04:14:37;;;;;;;;;;;23.00;45.90;;;;;;1563045;74;1113;-61
2021/08/24 04:16:39;;;;;;;;;;;22.90;45.90;;;;;;1562297;74;729;-62
2021/08/24 04:18:41;;;;;;;;;;;23.00;45.90;;;;;;1557688;74;783;-63
2021/08/24 04:20:43;;;;;;;;;;;22.90;45.90;;;;;;1575916;74;776;-62
2021/08/24 04:22:46;;;;;;;;;;;23.00;45.80;;;;;;1566565;74;1153;-60
2021/08/24 04:24:48;;;;;;;;;;;23.00;45.90;;;;;;1564952;74;772;-63
2021/08/24 04:26:50;;;;;;;;;;;22.90;45.80;;;;;;1563654;74;784;-62
2021/08/24 04:28:52;;;;;;;;;;;22.90;45.80;;;;;;1560056;75;665;-62
2021/08/24 04:30:54;;;;;;;;;;;23.00;45.80;;;;;;1577889;74;733;-60
2021/08/24 04:32:55;;;;;;;;;;;23.00;45.70;;;;;;1553557;74;1942;-62
2021/08/24 04:34:57;;;;;;;;;;;23.00;45.70;;;;;;1574907;74;949;-63
2021/08/24 04:36:59;;;;;;;;;;;23.00;45.70;;;;;;1576176;74;769;-63
2021/08/24 04:39:01;;;;;;;;;;;23.00;45.70;;;;;;1572143;74;780;-63
2021/08/24 04:41:03;;;;;;;;;;;22.90;45.70;;;;;;1560055;74;758;-63
2021/08/24 04:43:05;;;;;;;;;;;23.00;45.70;;;;;;1573645;74;1141;-62
2021/08/24 04:45:07;;;;;;;;;;;22.90;45.70;;;;;;1560145;75;803;-63
2021/08/24 04:47:09;;;;;;;;;;;22.90;45.70;;;;;;1572234;75;870;-63
2021/08/24 04:49:11;;;;;;;;;;;22.90;45.70;;;;;;1566312;74;888;-63
2021/08/24 04:51:13;;;;;;;;;;;23.00;45.70;;;;;;1566305;74;730;-63
2021/08/24 04:53:14;;;;;;;;;;;22.90;45.70;;;;;;1575284;74;1913;-62
2021/08/24 04:55:16;;;;;;;;;;;23.00;45.70;;;;;;1562367;74;802;-61
2021/08/24 04:57:18;;;;;;;;;;;22.90;45.70;;;;;;1560238;75;685;-62
2021/08/24 04:59:20;;;;;;;;;;;22.90;45.70;;;;;;1577807;74;791;-62
2021/08/24 05:01:22;;;;;;;;;;;23.00;45.60;;;;;;1566647;74;801;-60
2021/08/24 05:03:24;;;;;;;;;;;23.00;45.60;;;;;;1549211;74;1104;-62
2021/08/24 05:05:26;;;;;;;;;;;22.90;45.50;;;;;;1575584;74;767;-62
2021/08/24 05:07:29;;;;;;;;;;;22.90;45.60;;;;;;1564830;74;757;-62
2021/08/24 05:09:31;;;;;;;;;;;22.90;45.50;;;;;;1563299;75;845;-63
2021/08/24 05:11:32;;;;;;;;;;;22.90;45.50;;;;;;1553027;74;748;-63
2021/08/24 05:13:34;;;;;;;;;;;22.90;45.50;;;;;;1567361;74;1936;-62
2021/08/24 05:15:36;;;;;;;;;;;22.90;45.50;;;;;;1569032;74;753;-63
2021/08/24 05:17:38;;;;;;;;;;;22.90;45.50;;;;;;1570587;75;722;-63
2021/08/24 05:19:40;;;;;;;;;;;22.90;45.50;;;;;;1548470;74;789;-62
2021/08/24 05:21:42;;;;;;;;;;;22.90;45.50;;;;;;1561374;74;718;-61
2021/08/24 05:23:44;;;;;;;;;;;22.90;45.50;;;;;;1560816;74;1127;-62
2021/08/24 05:25:47;;;;;;;;;;;22.90;45.50;;;;;;1578237;74;751;-63
2021/08/24 05:27:49;;;;;;;;;;;22.90;45.50;;;;;;1559278;74;695;-62
2021/08/24 05:29:51;;;;;;;;;;;22.90;45.40;;;;;;1568513;74;923;-62
2021/08/24 05:31:53;;;;;;;;;;;22.90;45.40;;;;;;1559085;74;705;-62
2021/08/24 05:33:55;;;;;;;;;;;22.90;45.40;;;;;;1568500;75;1951;-62
2021/08/24 05:35:57;;;;;;;;;;;22.90;45.40;;;;;;1565414;74;786;-62
2021/08/24 05:37:58;;;;;;;;;;;23.00;45.50;;;;;;1569803;74;791;-63
2021/08/24 05:40:00;;;;;;;;;;;22.90;45.50;;;;;;1571779;74;829;-63
2021/08/24 05:42:02;;;;;;;;;;;22.90;45.50;;;;;;1560557;75;745;-62
2021/08/24 05:44:04;;;;;;;;;;;22.90;45.50;;;;;;1564894;74;1100;-62
2021/08/24 05:46:07;;;;;;;;;;;22.90;45.40;;;;;;1571771;74;684;-60
2021/08/24 05:48:09;;;;;;;;;;;22.90;45.30;;;;;;1557544;74;745;-62
2021/08/24 05:50:11;;;;;;;;;;;22.80;45.20;;;;;;1582554;74;676;-62
2021/08/24 05:52:13;;;;;;;;;;;22.90;45.30;;;;;;1564721;75;742;-63
2021/08/24 05:54:15;;;;;;;;;;;22.90;45.40;;;;;;1565014;74;1951;-62
2021/08/24 05:56:17;;;;;;;;;;;22.90;45.30;;;;;;1554865;74;985;-63
2021/08/24 05:58:19;;;;;;;;;;;22.90;45.30;;;;;;1564871;74;805;-62
2021/08/24 06:00:21;;;;;;;;;;;22.90;45.40;;;;;;1565209;74;826;-63
2021/08/24 06:02:23;;;;;;;;;;;22.90;45.40;;;;;;1568431;74;792;-63
2021/08/24 06:04:26;;;;;;;;;;;22.90;45.40;;;;;;1576635;74;1104;-61
2021/08/24 06:06:29;;;;;;;;;;;22.90;45.40;;;;;;1556362;75;786;-62
2021/08/24 06:08:31;;;;;;;;;;;22.90;45.40;;;;;;1567438;74;828;-62
2021/08/24 06:10:39;;;;;;;;;;;22.90;45.40;;;;;;1563082;74;798;-62
2021/08/24 06:12:41;;;;;;;;;;;22.90;45.40;;;;;;1564908;74;909;-63
2021/08/24 06:14:43;;;;;;;;;;;22.90;45.50;;;;;;1566417;75;1939;-62
2021/08/24 06:16:45;;;;;;;;;;;22.90;45.50;;;;;;1567142;74;779;-63
2021/08/24 06:18:47;;;;;;;;;;;22.90;45.50;;;;;;1551396;75;757;-63
2021/08/24 06:20:48;;;;;;;;;;;22.90;45.50;;;;;;1576851;74;781;-63
2021/08/24 06:22:50;;;;;;;;;;;22.90;45.50;;;;;;1569642;74;1148;-62
2021/08/24 06:24:52;;;;;;;;;;;22.90;45.50;;;;;;1560819;75;785;-62
2021/08/24 06:26:54;;;;;;;;;;;22.80;45.40;;;;;;1551544;75;731;-63
2021/08/24 06:28:56;;;;;;;;;;;22.90;45.50;;;;;;1555612;75;688;-63
2021/08/24 06:30:58;;;;;;;;;;;22.90;45.50;;;;;;1576532;74;764;-62
2021/08/24 06:33:00;;;;;;;;;;;22.80;45.30;;;;;;1548016;75;1126;-62
2021/08/24 06:35:02;;;;;;;;;;;22.90;45.50;;;;;;1558958;75;1934;-62
2021/08/24 06:37:04;;;;;;;;;;;22.90;45.50;;;;;;1578104;74;808;-62
2021/08/24 06:39:06;;;;;;;;;;;22.90;45.50;;;;;;1567155;74;791;-61
2021/08/24 06:41:08;;;;;;;;;;;22.90;45.50;;;;;;1565046;75;708;-62
2021/08/24 06:43:09;;;;;;;;;;;22.80;45.30;;;;;;1558496;74;1101;-60
2021/08/24 06:45:12;;;;;;;;;;;22.90;45.50;;;;;;1560685;74;647;-63
2021/08/24 06:47:14;;;;;;;;;;;22.90;45.50;;;;;;1562770;74;723;-62
2021/08/24 06:49:16;;;;;;;;;;;22.90;45.50;;;;;;1573391;74;740;-61
2021/08/24 06:51:17;;;;;;;;;;;22.90;45.50;;;;;;1571816;74;792;-62
2021/08/24 06:53:19;;;;;;;;;;;22.90;45.50;;;;;;1562424;74;1134;-62
2021/08/24 06:55:25;;;;;;;;;;;22.90;45.50;;;;;;1571659;74;1872;-63
2021/08/24 06:57:25;;;;;;;;;;;22.90;45.50;;;;;;1559525;74;1678;-63
2021/08/24 06:59:27;;;;;;;;;;;22.80;45.40;;;;;;1553284;75;788;-63
2021/08/24 07:01:30;;;;;;;;;;;22.80;45.40;;;;;;1564379;74;746;-62
2021/08/24 07:03:31;;;;;;;;;;;22.80;45.40;;;;;;1555939;75;1141;-62
2021/08/24 07:05:33;;;;;;;;;;;22.80;45.50;;;;;;1571793;74;1003;-63
2021/08/24 07:07:35;;;;;;;;;;;22.90;45.60;;;;;;1560020;75;795;-63
2021/08/24 07:09:37;;;;;;;;;;;22.80;45.50;;;;;;1549076;75;756;-63
2021/08/24 07:11:39;;;;;;;;;;;22.90;45.60;;;;;;1545130;75;712;-62
2021/08/24 07:13:41;;;;;;;;;;;22.90;45.60;;;;;;1561631;75;1936;-63
2021/08/24 07:15:43;;;;;;;;;;;22.90;45.60;;;;;;1560636;75;668;-62
2021/08/24 07:17:46;;;;;;;;;;;22.90;45.60;;;;;;1557396;74;720;-63
2021/08/24 07:19:48;;;;;;;;;;;22.90;45.60;;;;;;1553897;74;861;-62
2021/08/24 07:21:50;;;;;;;;;;;22.80;45.50;;;;;;1557489;75;735;-62
2021/08/24 07:23:52;;;;;;;;;;;22.90;45.60;;;;;;1572372;74;1161;-63
2021/08/24 07:25:54;;;;;;;;;;;22.90;45.60;;;;;;1566218;75;789;-62
2021/08/24 07:27:56;;;;;;;;;;;22.80;45.50;;;;;;1563846;74;820;-62
2021/08/24 07:29:58;;;;;;;;;;;22.80;45.60;;;;;;1559392;74;675;-62
2021/08/24 07:32:00;;;;;;;;;;;22.80;45.60;;;;;;1551922;75;734;-63
2021/08/24 07:34:02;;;;;;;;;;;22.80;45.60;;;;;;1562173;74;1947;-62
2021/08/24 07:36:04;;;;;;;;;;;22.90;45.70;;;;;;1560725;75;806;-62
2021/08/24 07:38:05;;;;;;;;;;;22.80;45.60;;;;;;1547908;74;797;-63
2021/08/24 07:40:08;;;;;;;;;;;22.90;45.80;;;;;;1561707;75;792;-62
2021/08/24 07:42:10;;;;;;;;;;;22.90;45.80;;;;;;1571795;74;695;-63
2021/08/24 07:44:12;;;;;;;;;;;22.80;45.70;;;;;;1567545;75;1156;-62
2021/08/24 07:46:14;;;;;;;;;;;22.80;45.70;;;;;;1561294;74;708;-62
2021/08/24 07:48:16;;;;;;;;;;;22.90;45.80;;;;;;1556316;75;704;-62
2021/08/24 07:50:18;;;;;;;;;;;22.80;45.80;;;;;;1557113;74;747;-62
2021/08/24 07:52:19;;;;;;;;;;;22.80;45.70;;;;;;1575280;74;734;-62
2021/08/24 07:54:23;;;;;;;;;;;22.90;45.90;;;;;;1571254;73;2030;-67
2021/08/24 07:56:25;;;;;;;;;;;22.80;45.80;;;;;;1563697;74;932;-66
2021/08/24 07:58:27;;;;;;;;;;;22.80;45.80;;;;;;1561161;74;728;-66
2021/08/24 08:00:28;;;;;;;;;;;22.80;45.80;;;;;;1558018;74;759;-66
2021/08/24 08:02:30;;;;;;;;;;;22.80;45.80;;;;;;1566338;74;768;-66
2021/08/24 08:04:32;;;;;;;;;;;22.80;45.80;;;;;;1549497;76;1214;-67
2021/08/24 08:06:35;;;;;;;;;;;22.80;45.80;;;;;;1534824;75;721;-67
2021/08/24 08:08:37;;;;;;;;;;;22.90;46.00;;;;;;1537321;75;778;-66
2021/08/24 08:10:39;;;;;;;;;;;22.80;45.90;;;;;;1543519;76;730;-67
2021/08/24 08:12:41;;;;;;;;;;;22.90;46.00;;;;;;1536778;76;768;-67
2021/08/24 08:14:43;;;;;;;;;;;22.90;45.90;;;;;;1536733;76;1931;-68
2021/08/24 08:16:44;;;;;;;;;;;22.90;46.00;;;;;;1538901;75;790;-68
2021/08/24 08:18:50;;;;;;;;;;;22.80;45.90;;;;;;1545180;76;755;-67
2021/08/24 08:20:50;;;;;;;;;;;22.80;45.80;;;;;;1539283;76;1759;-66
2021/08/24 08:22:52;;;;;;;;;;;22.80;45.90;;;;;;1538272;76;676;-67
2021/08/24 08:24:54;;;;;;;;;;;22.90;46.00;;;;;;1544292;75;1134;-68
2021/08/24 08:26:56;;;;;;;;;;;22.80;45.90;;;;;;1535472;75;731;-67
2021/08/24 08:28:57;;;;;;;;;;;22.90;46.00;;;;;;1543256;76;601;-68
2021/08/24 08:31:01;;;;;;;;;;;22.90;46.10;;;;;;1545616;76;732;-68
2021/08/24 08:33:04;;;;;;;;;;;22.90;46.10;;;;;;1545549;76;1154;-67
2021/08/24 08:35:06;;;;;;;;;;;22.80;46.00;;;;;;1538524;76;1927;-67
2021/08/24 08:37:08;;;;;;;;;;;22.80;46.00;;;;;;1542864;75;791;-67
2021/08/24 08:39:10;;;;;;;;;;;22.80;46.00;;;;;;1544649;76;711;-68
2021/08/24 08:41:22;;;;;;;;;;;22.80;46.00;;;;;;1541885;76;788;-66
2021/08/24 08:43:44;;;;;;;;;;;22.80;46.00;;;;;;1521646;76;1146;-68
2021/08/24 08:45:47;;;;;;;;;;;22.90;46.10;;;;;;1540154;75;793;-67
2021/08/24 08:48:08;;;;;;;;;;;22.80;46.00;;;;;;1552809;76;822;-67
2021/08/24 08:50:28;;;;;;;;;;;22.90;46.20;;;;;;1546641;76;757;-67
2021/08/24 08:52:48;;;;;;;;;;;22.80;46.00;;;;;;1543255;76;746;-66
2021/08/24 08:54:55;;;;;;;;;;;22.80;46.10;;;;;;1554723;75;1946;-69
2021/08/24 08:57:03;;;;;;;;;;;22.80;46.10;;;;;;1540889;76;728;-67
2021/08/24 08:59:21;;;;;;;;;;;22.80;46.10;;;;;;1543032;76;694;-68
2021/08/24 09:01:40;;;;;;;;;;;22.90;46.20;;;;;;1541390;76;714;-68
2021/08/24 09:03:44;;;;;;;;;;;22.70;46.10;;;;;;1535640;75;1666;-67
2021/08/24 09:05:47;;;;;;;;;;;22.80;46.20;;;;;;1537251;76;770;-68
2021/08/24 09:07:53;;;;;;;;;;;22.80;46.20;;;;;;1541388;76;1075;-67
2021/08/24 09:09:55;;;;;;;;;;;22.80;46.30;;;;;;1545342;76;720;-66
2021/08/24 09:11:57;;;;;;;;;;;22.80;46.30;;;;;;1545421;75;705;-69
2021/08/24 09:14:03;;;;;;;;;;;22.90;46.40;;;;;;1540005;76;1193;-67
2021/08/24 09:16:05;;;;;;;;;;;22.80;46.30;;;;;;1541287;76;1916;-68
2021/08/24 09:18:07;;;;;;;;;;;22.80;46.30;;;;;;1546041;76;729;-67
2021/08/24 09:20:11;;;;;;;;;;;22.80;46.30;;;;;;1544646;75;696;-67
2021/08/24 09:22:14;;;;;;;;;;;22.90;46.40;;;;;;1537254;75;1645;-68
2021/08/24 09:24:16;;;;;;;;;;;22.80;46.30;;;;;;1537773;76;1094;-66
2021/08/24 09:26:26;;;;;;;;;;;22.80;46.30;;;;;;1542541;76;703;-67
2021/08/24 09:28:28;;;;;;;;;;;22.80;46.30;;;;;;1541207;76;1532;-68
2021/08/24 09:30:30;;;;;;;;;;;22.80;46.30;;;;;;1539470;75;805;-67
2021/08/24 09:32:32;;;;;;;;;;;22.80;46.40;;;;;;1537567;76;701;-67
2021/08/24 09:34:38;;;;;;;;;;;22.80;46.40;;;;;;1530260;76;1947;-67
2021/08/24 09:36:40;;;;;;;;;;;22.80;46.40;;;;;;1539919;76;738;-68
2021/08/24 09:38:57;;;;;;;;;;;22.80;46.50;;;;;;1542490;76;796;-68
2021/08/24 09:41:00;;;;;;;;;;;22.90;46.60;;;;;;1537833;75;705;-66
2021/08/24 09:43:04;;;;;;;;;;;22.80;46.50;;;;;;1543987;76;714;-67
2021/08/24 09:45:07;;;;;;;;;;;22.80;46.50;;;;;;1545983;76;1836;-67
2021/08/24 09:47:16;;;;;;;;;;;22.80;46.50;;;;;;1536860;76;703;-67
2021/08/24 09:49:22;;;;;;;;;;;22.90;46.60;;;;;;1528731;75;712;-67
2021/08/24 09:51:41;;;;;;;;;;;22.80;46.50;;;;;;1534151;76;735;-68
2021/08/24 09:53:43;;;;;;;;;;;22.80;46.50;;;;;;1536521;76;1136;-66
2021/08/24 09:55:46;;;;;;;;;;;22.80;46.50;;;;;;1535043;76;1932;-66
2021/08/24 09:57:56;;;;;;;;;;;22.80;46.50;;;;;;1536174;76;739;-66
2021/08/24 10:00:05;;;;;;;;;;;22.90;46.70;;;;;;1533579;75;806;-67
2021/08/24 10:02:09;;;;;;;;;;;22.80;46.50;;;;;;1550182;76;698;-68
2021/08/24 10:04:11;;;;;;;;;;;22.80;46.50;;;;;;1541758;76;1993;-66
2021/08/24 10:06:24;;;;;;;;;;;22.80;46.50;;;;;;1544014;76;796;-67
2021/08/24 10:08:33;;;;;;;;;;;22.80;46.50;;;;;;1542774;76;748;-68
2021/08/24 10:10:36;;;;;;;;;;;22.80;46.50;;;;;;1540181;75;1272;-67
2021/08/24 10:12:38;;;;;;;;;;;22.80;46.50;;;;;;1540120;76;767;-67
2021/08/24 10:14:41;;;;;;;;;;;22.80;46.60;;;;;;1537836;76;1927;-67
2021/08/24 10:16:44;;;;;;;;;;;22.80;46.50;;;;;;1548485;76;696;-68
2021/08/24 10:18:46;;;;;;;;;;;22.90;46.70;;;;;;1535903;75;784;-66
2021/08/24 10:20:55;;;;;;;;;;;22.80;46.50;;;;;;1537778;76;692;-66
2021/08/24 10:22:57;;;;;;;;;;;22.80;46.50;;;;;;1544419;76;697;-67
2021/08/24 10:25:06;;;;;;;;;;;22.80;46.60;;;;;;1544224;76;1017;-66
2021/08/24 10:27:10;;;;;;;;;;;22.80;46.70;;;;;;1540920;75;713;-66
2021/08/24 10:29:12;;;;;;;;;;;22.80;46.60;;;;;;1540712;76;691;-67
2021/08/24 10:31:19;;;;;;;;;;;22.90;46.80;;;;;;1546277;76;808;-62
2021/08/24 10:33:22;;;;;;;;;;;22.90;46.70;;;;;;1546735;76;1182;-65
2021/08/24 10:35:25;;;;;;;;;;;22.90;46.70;;;;;;1537043;75;1927;-65
2021/08/24 10:37:28;;;;;;;;;;;22.90;46.80;;;;;;1541928;75;669;-65
2021/08/24 10:39:30;;;;;;;;;;;22.80;46.60;;;;;;1551221;76;728;-65
2021/08/24 10:41:36;;;;;;;;;;;22.90;46.80;;;;;;1547258;76;697;-65
2021/08/24 10:43:38;;;;;;;;;;;22.80;46.60;;;;;;1555227;76;1170;-66
2021/08/24 10:45:41;;;;;;;;;;;22.80;46.60;;;;;;1506092;77;1271;-67
2021/08/24 10:47:44;;;;;;;;;;;22.90;46.80;;;;;;1539712;75;713;-67
2021/08/24 10:49:46;;;;;;;;;;;22.90;46.80;;;;;;1540200;76;811;-69
2021/08/24 10:51:53;;;;;;;;;;;22.80;46.60;;;;;;1548024;76;690;-67
2021/08/24 10:54:13;;;;;;;;;;;22.90;46.80;;;;;;1540164;76;2019;-68
2021/08/24 10:56:19;;;;;;;;;;;22.80;46.60;;;;;;1542078;75;1928;-69
2021/08/24 10:58:23;;;;;;;;;;;22.80;46.70;;;;;;1543170;76;705;-67
2021/08/24 11:00:43;;;;;;;;;;;22.80;46.60;;;;;;1542861;76;1685;-68
2021/08/24 11:03:03;;;;;;;;;;;22.70;46.60;;;;;;1543351;76;676;-64
2021/08/24 11:05:06;;;;;;;;;;;22.80;46.60;;;;;;1542279;75;720;-68
2021/08/24 11:07:19;;;;;;;;;;;22.80;46.60;;;;;;1542105;76;763;-67
2021/08/24 11:09:28;;;;;;;;;;;22.70;46.60;;;;;;1546039;76;775;-66
2021/08/24 11:11:40;;;;;;;;;;;22.70;46.60;;;;;;1532380;76;690;-68
2021/08/24 11:13:47;;;;;;;;;;;22.70;46.60;;;;;;1530724;76;1125;-67
2021/08/24 11:15:50;;;;;;;;;;;22.80;46.70;;;;;;1535362;75;1945;-66
2021/08/24 11:18:11;;;;;;;;;;;22.80;46.70;;;;;;1548978;76;1164;-67
2021/08/24 11:20:17;;;;;;;;;;;22.80;46.60;;;;;;1552514;76;720;-67
2021/08/24 11:22:21;;;;;;;;;;;22.80;46.70;;;;;;1543494;76;712;-67
2021/08/24 11:24:30;;;;;;;;;;;22.80;46.70;;;;;;1545182;75;1140;-67
2021/08/24 11:26:46;;;;;;;;;;;22.70;46.80;;;;;;1534602;76;697;-67
2021/08/24 11:28:55;;;;;;;;;;;22.80;46.70;;;;;;1541842;76;1154;-66
2021/08/24 11:31:04;;;;;;;;;;;22.70;46.70;;;;;;1552348;76;1627;-67
2021/08/24 11:33:11;;;;;;;;;;;22.80;46.80;;;;;;1528551;75;1128;-67
2021/08/24 11:35:14;;;;;;;;;;;22.80;46.80;;;;;;1539448;75;1938;-67
2021/08/24 11:37:18;;;;;;;;;;;22.80;46.80;;;;;;1544022;76;1494;-67
2021/08/24 11:39:21;;;;;;;;;;;22.80;46.80;;;;;;1543403;76;700;-68
2021/08/24 11:41:23;;;;;;;;;;;22.80;46.80;;;;;;1547703;76;731;-67
2021/08/24 11:43:26;;;;;;;;;;;22.80;46.80;;;;;;1536467;75;1145;-67
2021/08/24 11:45:46;;;;;;;;;;;22.90;46.90;;;;;;1541916;76;1475;-67
2021/08/24 11:47:50;;;;;;;;;;;22.80;46.80;;;;;;1538905;76;790;-67
2021/08/24 11:49:53;;;;;;;;;;;22.90;46.90;;;;;;1535154;76;1115;-67
2021/08/24 11:51:56;;;;;;;;;;;22.80;46.80;;;;;;1545440;76;789;-69
2021/08/24 11:54:16;;;;;;;;;;;22.90;47.00;;;;;;1483952;76;1215;-67
2021/08/24 11:56:29;;;;;;;;;;;22.80;46.80;;;;;;1546576;76;1925;-67
2021/08/24 11:58:38;;;;;;;;;;;22.90;47.00;;;;;;1481295;78;1112;-68
2021/08/24 12:00:40;;;;;;;;;;;22.80;46.90;;;;;;1533001;75;857;-69
2021/08/24 12:02:43;;;;;;;;;;;22.90;47.00;;;;;;1538137;76;728;-66
2021/08/24 12:04:45;;;;;;;;;;;22.90;47.10;;;;;;1541710;76;1164;-63
2021/08/24 12:06:55;;;;;;;;;;;22.90;47.00;;;;;;1543390;76;792;-67
2021/08/24 12:08:57;;;;;;;;;;;22.80;46.90;;;;;;1530617;75;788;-68
2021/08/24 12:11:03;;;;;;;;;;;22.90;47.10;;;;;;1541612;75;721;-67
2021/08/24 12:13:05;;;;;;;;;;;22.90;47.00;;;;;;1540937;76;1196;-67
2021/08/24 12:15:08;;;;;;;;;;;22.90;47.10;;;;;;1548551;76;720;-67
2021/08/24 12:17:18;;;;;;;;;;;22.90;47.10;;;;;;1551484;76;702;-67
2021/08/24 12:19:20;;;;;;;;;;;22.90;47.10;;;;;;1534765;75;775;-67